Terminal Aerodrome Forecast
Issued by NWS

Home | Current Version | Previous Version | Text Only | Print | Product List | Glossary Off
Versions: 1 2 3 4 5 6 7 8 9 10 11 12 13

000
FTUS43 KTOP 292300
TAFMHK
TAF
KMHK 292320Z 3000/3024 17005KT P6SM SKC
     FM300500 21006KT P6SM BKN150 WS008/23040KT
     FM301200 27006KT P6SM SCT150
     FM301500 34012KT P6SM SKC=

USA.gov is the U.S. government's official web portal to all federal, state and local government web resources and services.